createdAt,value
2023-01-20T00:00:10.809Z,21.80
2023-01-20T00:01:10.775Z,20.50
2023-01-20T00:02:10.759Z,21.10
2023-01-20T00:03:10.761Z,21.50
2023-01-20T00:04:10.738Z,20.80
2023-01-20T00:05:10.782Z,21.10
2023-01-20T00:06:10.708Z,21.60
2023-01-20T00:07:10.700Z,21.20
2023-01-20T00:08:10.701Z,20.00
2023-01-20T00:09:10.668Z,21.10
2023-01-20T00:10:10.658Z,20.90
2023-01-20T00:11:10.645Z,20.60
2023-01-20T00:12:10.630Z,21.00
2023-01-20T00:13:10.629Z,21.10
2023-01-20T00:14:10.616Z,21.20
2023-01-20T00:15:10.675Z,21.20
2023-01-20T00:16:10.637Z,21.10
2023-01-20T00:17:10.566Z,21.10
2023-01-20T00:18:10.574Z,20.60
2023-01-20T00:19:10.547Z,20.70
2023-01-20T00:20:10.562Z,20.00
2023-01-20T00:21:10.510Z,20.30
2023-01-20T00:22:10.516Z,20.00
2023-01-20T00:23:10.499Z,20.40
2023-01-20T00:24:10.477Z,20.70
2023-01-20T00:25:10.450Z,20.90
2023-01-20T00:26:10.467Z,20.70
2023-01-20T00:27:10.437Z,21.40
2023-01-20T00:28:10.438Z,21.00
2023-01-20T00:29:10.400Z,20.00
2023-01-20T00:30:10.406Z,20.30
2023-01-20T00:31:10.398Z,20.30
2023-01-20T00:32:10.370Z,20.40
2023-01-20T00:33:10.369Z,20.00
2023-01-20T00:34:10.343Z,20.60
2023-01-20T00:35:10.424Z,20.70
2023-01-20T00:36:10.320Z,20.00
2023-01-20T00:37:10.299Z,20.60
2023-01-20T00:38:10.309Z,21.20
2023-01-20T00:39:10.269Z,19.70
2023-01-20T00:40:10.270Z,20.30
2023-01-20T00:41:10.296Z,20.10
2023-01-20T00:42:10.239Z,20.80
2023-01-20T00:43:10.241Z,20.80
2023-01-20T00:44:10.220Z,20.40
2023-01-20T00:45:10.205Z,20.70
2023-01-20T00:46:10.213Z,21.00
2023-01-20T00:47:10.169Z,21.40
2023-01-20T00:48:10.181Z,20.60
2023-01-20T00:49:10.140Z,21.10
2023-01-20T00:50:10.156Z,19.70
2023-01-20T00:51:10.163Z,19.50
2023-01-20T00:52:10.114Z,20.80
2023-01-20T00:53:10.107Z,20.00
2023-01-20T00:54:10.084Z,20.40
2023-01-20T00:55:10.060Z,21.90
2023-01-20T00:56:10.059Z,21.20
2023-01-20T00:57:10.029Z,22.20
2023-01-20T00:58:10.056Z,21.70
2023-01-20T00:59:10.019Z,21.90
2023-01-20T01:00:10.006Z,23.10
2023-01-20T01:01:10.107Z,22.40
2023-01-20T01:02:10.108Z,22.70
2023-01-20T01:03:09.968Z,24.00
2023-01-20T01:04:09.951Z,23.60
2023-01-20T01:05:09.953Z,24.00
2023-01-20T01:06:09.931Z,24.60
2023-01-20T01:07:09.899Z,24.60
2023-01-20T01:08:09.941Z,24.70
2023-01-20T01:09:09.879Z,23.40
2023-01-20T01:10:09.902Z,24.60
2023-01-20T01:11:09.904Z,25.60
2023-01-20T01:12:09.841Z,25.60
2023-01-20T01:13:09.842Z,25.20
2023-01-20T01:14:09.818Z,25.60
2023-01-20T01:15:09.813Z,26.20
2023-01-20T01:16:09.812Z,25.50
2023-01-20T01:17:09.771Z,26.00
2023-01-20T01:18:09.784Z,25.80
2023-01-20T01:19:09.744Z,26.40
2023-01-20T01:20:09.739Z,25.40
2023-01-20T01:21:09.734Z,26.60
2023-01-20T01:22:09.708Z,25.70
2023-01-20T01:23:09.710Z,26.40
2023-01-20T01:24:09.684Z,24.70
2023-01-20T01:25:09.670Z,25.70
2023-01-20T01:26:09.660Z,26.50
2023-01-20T01:27:09.649Z,25.90
2023-01-20T01:28:09.669Z,25.30
2023-01-20T01:29:09.611Z,24.90
2023-01-20T01:30:09.614Z,25.80
2023-01-20T01:31:09.634Z,25.70
2023-01-20T01:32:09.580Z,26.10
2023-01-20T01:33:09.578Z,26.80
2023-01-20T01:34:09.559Z,26.30
2023-01-20T01:35:09.540Z,27.00
2023-01-20T01:36:09.540Z,25.40
2023-01-20T01:37:09.536Z,26.60
2023-01-20T01:38:09.523Z,26.20
2023-01-20T01:39:09.489Z,26.40
2023-01-20T01:40:09.479Z,27.20
2023-01-20T01:41:09.458Z,27.30
2023-01-20T01:42:09.450Z,27.50
2023-01-20T01:43:09.440Z,26.30
2023-01-20T01:44:09.443Z,26.90
2023-01-20T01:45:09.408Z,27.40
2023-01-20T01:46:09.398Z,27.80
2023-01-20T01:47:09.379Z,27.50
2023-01-20T01:48:09.389Z,27.80
2023-01-20T01:49:09.349Z,28.60
2023-01-20T01:50:09.340Z,28.80
2023-01-20T01:51:09.323Z,28.10
2023-01-20T01:52:09.314Z,28.20
2023-01-20T01:53:09.324Z,28.10
2023-01-20T01:54:09.290Z,27.70
2023-01-20T01:55:09.270Z,27.70
2023-01-20T01:56:09.262Z,27.70
2023-01-20T01:57:09.256Z,28.60
2023-01-20T01:58:09.260Z,27.70
2023-01-20T01:59:09.230Z,27.30
2023-01-20T02:00:09.209Z,28.00
2023-01-20T02:01:09.298Z,28.00
2023-01-20T02:02:09.254Z,27.50
2023-01-20T02:03:09.188Z,28.50
2023-01-20T02:05:22.403Z,26.20
2023-01-20T02:06:19.829Z,26.80
2023-01-20T02:07:19.795Z,28.00
2023-01-20T02:08:19.802Z,27.40
2023-01-20T02:09:19.787Z,28.60
2023-01-20T02:10:19.773Z,28.30
2023-01-20T02:11:19.752Z,28.20
2023-01-20T02:12:19.756Z,28.40
2023-01-20T02:13:19.720Z,28.50
2023-01-20T02:14:19.703Z,27.90
2023-01-20T02:15:19.758Z,28.40
2023-01-20T02:16:19.807Z,28.50
2023-01-20T02:17:19.681Z,27.90
2023-01-20T02:18:19.654Z,28.80
2023-01-20T02:19:19.639Z,29.60
2023-01-20T02:20:19.628Z,29.20
2023-01-20T02:21:19.620Z,28.70
2023-01-20T02:22:19.612Z,29.90
2023-01-20T02:23:19.593Z,29.10
2023-01-20T02:24:19.582Z,27.60
2023-01-20T02:25:19.567Z,27.70
2023-01-20T02:26:19.543Z,29.00
2023-01-20T02:27:19.551Z,28.00
2023-01-20T02:28:19.519Z,28.00
2023-01-20T02:29:19.510Z,28.90
2023-01-20T02:30:19.535Z,27.50
2023-01-20T02:31:19.520Z,28.30
2023-01-20T02:32:19.480Z,28.90
2023-01-20T02:33:26.471Z,28.50
2023-01-20T02:34:19.454Z,28.50
2023-01-20T02:35:19.440Z,27.40
2023-01-20T02:36:19.412Z,27.70
2023-01-20T02:37:19.449Z,27.50
2023-01-20T02:38:19.390Z,28.90
2023-01-20T02:39:27.006Z,28.00
2023-01-20T02:40:20.371Z,27.80
2023-01-20T02:41:19.352Z,27.80
2023-01-20T02:42:19.372Z,26.80
2023-01-20T02:43:19.328Z,26.00
2023-01-20T02:44:19.312Z,27.20
2023-01-20T02:45:19.301Z,26.90
2023-01-20T02:46:19.281Z,26.80
2023-01-20T02:47:19.290Z,26.20
2023-01-20T02:48:19.253Z,26.40
2023-01-20T02:49:19.270Z,25.40
2023-01-20T02:50:19.245Z,26.00
2023-01-20T02:51:19.222Z,26.40
2023-01-20T02:52:19.240Z,25.60
2023-01-20T02:53:19.234Z,26.40
2023-01-20T02:54:19.200Z,26.10
2023-01-20T02:55:19.182Z,26.20
2023-01-20T02:56:19.151Z,27.10
2023-01-20T02:57:19.159Z,26.50
2023-01-20T02:58:19.173Z,26.00
2023-01-20T02:59:19.131Z,26.30
2023-01-20T03:00:19.125Z,26.00
2023-01-20T03:01:19.255Z,25.70
2023-01-20T03:02:19.089Z,25.30
2023-01-20T03:03:19.081Z,26.50
2023-01-20T03:04:19.079Z,26.10
2023-01-20T03:05:19.052Z,26.00
2023-01-20T03:06:19.060Z,25.80
2023-01-20T03:07:19.044Z,25.30
2023-01-20T03:08:19.034Z,26.50
2023-01-20T03:09:18.991Z,27.40
2023-01-20T03:10:19.009Z,25.70
2023-01-20T03:11:18.971Z,24.50
2023-01-20T03:12:18.963Z,26.00
2023-01-20T03:13:18.986Z,26.10
2023-01-20T03:14:18.923Z,25.40
2023-01-20T03:15:18.910Z,26.40
2023-01-20T03:16:18.952Z,25.90
2023-01-20T03:17:18.892Z,24.80
2023-01-20T03:18:18.903Z,24.80
2023-01-20T03:19:20.413Z,25.30
2023-01-20T03:20:18.861Z,26.00
2023-01-20T03:21:18.840Z,26.20
2023-01-20T03:22:18.846Z,25.80
2023-01-20T03:23:18.827Z,25.80
2023-01-20T03:24:18.796Z,25.80
2023-01-20T03:25:18.781Z,25.80
2023-01-20T03:26:18.760Z,25.40
2023-01-20T03:27:18.760Z,25.10
2023-01-20T03:28:18.764Z,27.20
2023-01-20T03:29:18.741Z,25.30
2023-01-20T03:30:18.746Z,24.80
2023-01-20T03:31:18.801Z,25.90
2023-01-20T03:32:18.716Z,26.00
2023-01-20T03:33:18.751Z,25.70
2023-01-20T03:34:18.662Z,25.80
2023-01-20T03:35:18.657Z,26.00
2023-01-20T03:36:18.631Z,25.90
2023-01-20T03:37:18.632Z,26.60
2023-01-20T03:38:18.641Z,26.30
2023-01-20T03:39:18.599Z,25.70
2023-01-20T03:40:18.620Z,26.70
2023-01-20T03:41:18.599Z,25.70
2023-01-20T03:42:18.591Z,26.80
2023-01-20T03:43:18.563Z,26.30
2023-01-20T03:44:18.550Z,27.90
2023-01-20T03:45:18.541Z,26.80
2023-01-20T03:46:18.504Z,25.30
2023-01-20T03:47:18.488Z,27.00
2023-01-20T03:48:18.491Z,27.00
2023-01-20T03:49:18.483Z,27.00
2023-01-20T03:50:18.470Z,27.20
2023-01-20T03:51:18.463Z,28.10
2023-01-20T03:52:18.443Z,27.20
2023-01-20T03:53:18.456Z,26.10
2023-01-20T03:54:18.401Z,27.70
2023-01-20T03:55:18.391Z,27.20
2023-01-20T03:56:18.399Z,27.80
2023-01-20T03:57:18.369Z,35.80
2023-01-20T03:58:18.416Z,27.60
2023-01-20T03:59:18.345Z,30.60
2023-01-20T04:00:18.337Z,28.80
2023-01-20T04:01:19.214Z,27.70
2023-01-20T04:02:18.408Z,27.00
2023-01-20T04:03:18.354Z,28.10
2023-01-20T04:04:18.261Z,28.70
2023-01-20T04:05:18.279Z,28.10
2023-01-20T04:06:18.243Z,28.60
2023-01-20T04:07:18.240Z,28.10
2023-01-20T04:08:18.249Z,27.60
2023-01-20T04:09:18.236Z,27.90
2023-01-20T04:10:18.190Z,28.30
2023-01-20T04:11:18.193Z,28.40
2023-01-20T04:12:18.161Z,27.30
2023-01-20T04:13:18.175Z,28.30
2023-01-20T04:14:18.159Z,27.80
2023-01-20T04:15:18.179Z,28.20
2023-01-20T04:16:18.117Z,27.50
2023-01-20T04:17:18.102Z,29.70
2023-01-20T04:18:18.104Z,26.80
2023-01-20T04:19:18.101Z,27.60
2023-01-20T04:20:18.074Z,28.50
2023-01-20T04:21:18.063Z,28.80
2023-01-20T04:22:18.054Z,28.60
2023-01-20T04:23:18.075Z,29.20
2023-01-20T04:24:18.011Z,28.00
2023-01-20T04:25:18.013Z,28.50
2023-01-20T04:26:18.024Z,29.50
2023-01-20T04:27:17.980Z,28.90
2023-01-20T04:28:17.991Z,28.70
2023-01-20T04:29:17.963Z,28.40
2023-01-20T04:30:18.071Z,28.40
2023-01-20T04:31:29.538Z,28.30
2023-01-20T04:32:18.929Z,29.40
2023-01-20T04:33:17.903Z,29.00
2023-01-20T04:34:17.884Z,28.60
2023-01-20T04:35:17.871Z,28.60
2023-01-20T04:36:17.863Z,28.00
2023-01-20T04:37:17.849Z,30.30
2023-01-20T04:38:17.875Z,29.30
2023-01-20T04:39:17.811Z,29.50
2023-01-20T04:40:17.806Z,29.60
2023-01-20T04:41:17.794Z,30.80
2023-01-20T04:42:17.806Z,28.60
2023-01-20T04:43:17.791Z,28.70
2023-01-20T04:44:17.777Z,66.60
2023-01-20T04:45:17.905Z,29.60
2023-01-20T04:46:17.746Z,30.40
2023-01-20T04:47:17.722Z,29.00
2023-01-20T04:48:17.717Z,29.50
2023-01-20T04:49:17.686Z,28.90
2023-01-20T04:50:17.694Z,28.30
2023-01-20T04:51:17.660Z,29.60
2023-01-20T04:52:17.673Z,29.20
2023-01-20T04:53:17.643Z,29.00
2023-01-20T04:54:17.630Z,28.00
2023-01-20T04:55:17.847Z,28.70
2023-01-20T04:56:17.615Z,28.00
2023-01-20T04:57:17.609Z,28.00
2023-01-20T04:58:17.580Z,27.80
2023-01-20T04:59:17.582Z,28.80
2023-01-20T05:00:17.552Z,29.10
2023-01-20T05:01:17.595Z,27.40
2023-01-20T05:02:17.629Z,27.30
2023-01-20T05:03:17.543Z,27.70
2023-01-20T05:04:17.520Z,27.50
2023-01-20T05:05:17.919Z,26.70
2023-01-20T05:06:17.473Z,25.20
2023-01-20T05:07:17.470Z,26.80
2023-01-20T05:08:17.457Z,26.50
2023-01-20T05:09:17.441Z,25.80
2023-01-20T05:10:17.442Z,26.00
2023-01-20T05:11:17.422Z,25.30
2023-01-20T05:12:17.393Z,25.60
2023-01-20T05:13:17.401Z,24.60
2023-01-20T05:14:17.371Z,24.80
2023-01-20T05:15:17.533Z,24.40
2023-01-20T05:16:17.396Z,24.80
2023-01-20T05:17:17.352Z,24.20
2023-01-20T05:18:17.317Z,24.40
2023-01-20T05:19:17.314Z,25.00
2023-01-20T05:20:17.272Z,24.10
2023-01-20T05:21:17.273Z,24.20
2023-01-20T05:22:17.255Z,25.60
2023-01-20T05:23:17.270Z,24.50
2023-01-20T05:24:17.253Z,23.80
2023-01-20T05:25:17.340Z,23.60
2023-01-20T05:26:17.219Z,24.80
2023-01-20T05:27:17.204Z,24.50
2023-01-20T05:28:17.193Z,24.40
2023-01-20T05:29:17.192Z,24.20
2023-01-20T05:30:17.153Z,24.30
2023-01-20T05:31:17.250Z,24.60
2023-01-20T05:32:17.134Z,24.90
2023-01-20T05:33:17.155Z,24.10
2023-01-20T05:34:17.130Z,24.50
2023-01-20T05:35:17.416Z,23.60
2023-01-20T05:36:17.087Z,85.60
2023-01-20T05:37:17.058Z,70.40
2023-01-20T05:38:17.059Z,28.30
2023-01-20T05:39:17.059Z,22.10
2023-01-20T05:40:17.044Z,22.40
2023-01-20T05:41:17.016Z,23.50
2023-01-20T05:42:16.997Z,21.90
2023-01-20T05:43:16.993Z,22.20
2023-01-20T05:44:16.964Z,23.00
2023-01-20T05:45:17.437Z,22.90
2023-01-20T05:46:17.005Z,22.00
2023-01-20T05:47:16.943Z,21.90
2023-01-20T05:48:16.942Z,23.00
2023-01-20T05:49:16.898Z,22.70
2023-01-20T05:50:16.895Z,23.20
2023-01-20T05:51:16.882Z,23.70
2023-01-20T05:52:16.874Z,23.90
2023-01-20T05:53:16.892Z,44.50
2023-01-20T05:54:16.842Z,22.60
2023-01-20T05:55:17.025Z,22.60
2023-01-20T05:56:16.811Z,22.90
2023-01-20T05:57:16.792Z,23.10
2023-01-20T05:58:16.809Z,22.40
2023-01-20T05:59:16.764Z,23.00
2023-01-20T06:00:16.793Z,22.30
2023-01-20T06:01:16.775Z,22.10
2023-01-20T06:02:16.723Z,23.30
2023-01-20T06:03:16.756Z,22.60
2023-01-20T06:04:16.711Z,23.30
2023-01-20T06:05:17.151Z,22.90
2023-01-20T06:06:16.683Z,23.70
2023-01-20T06:07:16.696Z,22.20
2023-01-20T06:08:16.687Z,24.10
2023-01-20T06:09:16.633Z,22.10
2023-01-20T06:10:16.644Z,23.50
2023-01-20T06:11:16.622Z,22.70
2023-01-20T06:12:16.600Z,23.30
2023-01-20T06:13:16.608Z,23.30
2023-01-20T06:14:16.610Z,23.50
2023-01-20T06:15:16.859Z,21.70
2023-01-20T06:16:16.618Z,22.90
2023-01-20T06:17:16.557Z,23.50
2023-01-20T06:18:16.542Z,23.10
2023-01-20T06:19:16.508Z,24.10
2023-01-20T06:20:16.504Z,23.40
2023-01-20T06:21:16.481Z,23.50
2023-01-20T06:22:16.496Z,22.90
2023-01-20T06:23:16.473Z,25.00
2023-01-20T06:24:16.452Z,23.60
2023-01-20T06:25:16.722Z,24.20
2023-01-20T06:26:16.461Z,24.70
2023-01-20T06:27:16.423Z,22.90
2023-01-20T06:28:16.412Z,22.80
2023-01-20T06:29:16.424Z,23.60
2023-01-20T06:30:16.378Z,22.90
2023-01-20T06:31:16.606Z,22.30
2023-01-20T06:32:16.366Z,21.50
2023-01-20T06:33:16.348Z,21.60
2023-01-20T06:34:16.342Z,20.90
2023-01-20T06:35:16.700Z,21.60
2023-01-20T06:36:16.292Z,20.80
2023-01-20T06:37:16.275Z,22.20
2023-01-20T06:38:16.284Z,21.80
2023-01-20T06:39:16.245Z,21.30
2023-01-20T06:40:16.252Z,22.00
2023-01-20T06:41:16.247Z,22.00
2023-01-20T06:42:16.226Z,21.50
2023-01-20T06:43:16.225Z,21.50
2023-01-20T06:44:16.192Z,21.10
2023-01-20T06:45:16.502Z,21.40
2023-01-20T06:46:16.248Z,21.30
2023-01-20T06:47:16.144Z,21.30
2023-01-20T06:48:16.175Z,21.80
2023-01-20T06:49:16.116Z,22.40
2023-01-20T06:50:16.112Z,21.90
2023-01-20T06:51:16.098Z,22.00
2023-01-20T06:52:16.121Z,21.80
2023-01-20T06:53:16.114Z,22.30
2023-01-20T06:54:16.067Z,25.20
2023-01-20T06:55:16.315Z,23.70
2023-01-20T06:56:16.060Z,21.50
2023-01-20T06:57:16.035Z,21.20
2023-01-20T06:58:16.024Z,22.90
2023-01-20T06:59:15.992Z,22.50
2023-01-20T07:00:16.000Z,22.30
2023-01-20T07:01:16.066Z,22.40
2023-01-20T07:02:16.095Z,22.30
2023-01-20T07:03:15.957Z,23.40
2023-01-20T07:04:15.935Z,22.40
2023-01-20T07:05:16.258Z,22.40
2023-01-20T07:06:15.954Z,22.90
2023-01-20T07:07:15.894Z,23.10
2023-01-20T07:08:15.894Z,22.80
2023-01-20T07:09:15.867Z,22.70
2023-01-20T07:10:15.856Z,22.90
2023-01-20T07:11:15.836Z,22.30
2023-01-20T07:12:15.855Z,23.00
2023-01-20T07:13:15.875Z,22.70
2023-01-20T07:14:15.816Z,22.30
2023-01-20T07:15:16.010Z,23.70
2023-01-20T07:16:16.172Z,23.90
2023-01-20T07:17:15.768Z,23.90
2023-01-20T07:18:15.759Z,22.90
2023-01-20T07:19:15.726Z,23.70
2023-01-20T07:20:15.724Z,24.00
2023-01-20T07:21:15.732Z,23.70
2023-01-20T07:22:15.695Z,23.80
2023-01-20T07:23:15.695Z,24.10
2023-01-20T07:24:15.665Z,24.20
2023-01-20T07:25:15.952Z,24.30
2023-01-20T07:26:15.634Z,24.60
2023-01-20T07:27:15.645Z,24.70
2023-01-20T07:28:15.626Z,23.80
2023-01-20T07:29:17.865Z,24.60
2023-01-20T07:30:15.607Z,24.70
2023-01-20T07:31:15.602Z,23.90
2023-01-20T07:32:15.580Z,23.50
2023-01-20T07:33:15.546Z,23.40
2023-01-20T07:34:15.559Z,24.10
2023-01-20T07:35:15.837Z,24.90
2023-01-20T07:36:15.539Z,23.90
2023-01-20T07:37:15.507Z,24.00
2023-01-20T07:38:15.508Z,23.50
2023-01-20T07:39:15.512Z,23.10
2023-01-20T07:40:15.455Z,24.10
2023-01-20T07:41:15.447Z,24.10
2023-01-20T07:42:15.435Z,24.20
2023-01-20T07:43:15.412Z,23.60
2023-01-20T07:44:15.409Z,24.10
2023-01-20T07:45:15.666Z,24.50
2023-01-20T07:46:15.396Z,23.30
2023-01-20T07:47:15.368Z,23.20
2023-01-20T07:48:15.359Z,23.80
2023-01-20T07:49:15.384Z,24.00
2023-01-20T07:50:15.336Z,23.50
2023-01-20T07:51:15.350Z,25.30
2023-01-20T07:52:15.299Z,24.30
2023-01-20T07:53:15.303Z,24.80
2023-01-20T07:54:15.295Z,25.40
2023-01-20T07:55:15.445Z,24.70
2023-01-20T07:56:15.281Z,24.20
2023-01-20T07:57:15.236Z,23.60
2023-01-20T07:58:15.229Z,24.20
2023-01-20T07:59:15.204Z,24.30
2023-01-20T08:00:15.209Z,24.30
2023-01-20T08:01:15.303Z,24.20
2023-01-20T08:02:15.168Z,24.50
2023-01-20T08:03:15.175Z,23.80
2023-01-20T08:04:15.186Z,23.80
2023-01-20T08:05:15.427Z,22.70
2023-01-20T08:06:15.154Z,22.90
2023-01-20T08:07:15.141Z,23.70
2023-01-20T08:08:15.100Z,23.50
2023-01-20T08:09:15.075Z,22.80
2023-01-20T08:10:15.072Z,23.50
2023-01-20T08:11:15.073Z,23.40
2023-01-20T08:12:15.045Z,24.40
2023-01-20T08:13:15.040Z,25.10
2023-01-20T08:14:15.034Z,24.80
2023-01-20T08:15:15.144Z,25.60
2023-01-20T08:16:15.034Z,26.40
2023-01-20T08:17:14.967Z,27.10
2023-01-20T08:18:14.969Z,28.80
2023-01-20T08:19:14.967Z,29.70
2023-01-20T08:20:14.948Z,26.30
2023-01-20T08:21:14.948Z,26.90
2023-01-20T08:22:14.909Z,26.40
2023-01-20T08:23:14.921Z,26.50
2023-01-20T08:24:14.888Z,26.70
2023-01-20T08:25:15.048Z,28.00
2023-01-20T08:26:14.869Z,26.10
2023-01-20T08:27:14.865Z,26.50
2023-01-20T08:28:14.830Z,26.50
2023-01-20T08:29:14.816Z,26.10
2023-01-20T08:30:14.827Z,26.90
2023-01-20T08:31:14.983Z,26.80
2023-01-20T08:32:14.778Z,27.50
2023-01-20T08:33:14.778Z,26.60
2023-01-20T08:35:27.235Z,24.20
2023-01-20T08:36:24.568Z,24.20
2023-01-20T08:37:27.201Z,25.50
2023-01-20T08:38:24.533Z,25.30
2023-01-20T08:39:24.530Z,24.30
2023-01-20T08:40:24.509Z,23.40
2023-01-20T08:41:24.567Z,23.80
2023-01-20T08:42:24.491Z,23.30
2023-01-20T08:43:24.476Z,23.20
2023-01-20T08:44:24.528Z,24.30
2023-01-20T08:45:24.463Z,24.20
2023-01-20T08:46:24.497Z,24.30
2023-01-20T08:47:24.459Z,24.50
2023-01-20T08:48:24.433Z,23.90
2023-01-20T08:49:24.481Z,24.30
2023-01-20T08:50:24.382Z,24.60
2023-01-20T08:51:24.410Z,22.90
2023-01-20T08:52:24.362Z,24.10
2023-01-20T08:53:24.347Z,24.30
2023-01-20T08:54:24.329Z,24.20
2023-01-20T08:55:24.323Z,24.00
2023-01-20T08:56:24.349Z,23.30
2023-01-20T08:57:24.302Z,23.60
2023-01-20T08:58:25.480Z,24.40
2023-01-20T08:59:24.292Z,23.60
2023-01-20T09:00:24.395Z,23.70
2023-01-20T09:01:24.279Z,23.00
2023-01-20T09:02:24.280Z,23.30
2023-01-20T09:03:24.227Z,24.40
2023-01-20T09:04:24.230Z,24.20
2023-01-20T09:05:24.207Z,23.80
2023-01-20T09:06:24.183Z,24.20
2023-01-20T09:07:24.368Z,24.40
2023-01-20T09:08:24.139Z,24.90
2023-01-20T09:09:24.154Z,23.40
2023-01-20T09:10:24.157Z,24.80
2023-01-20T09:11:24.159Z,24.70
2023-01-20T09:12:24.114Z,24.00
2023-01-20T09:13:24.088Z,23.50
2023-01-20T09:14:24.084Z,24.00
2023-01-20T09:15:25.570Z,23.10
2023-01-20T09:16:24.068Z,23.80
2023-01-20T09:17:24.069Z,22.90
2023-01-20T09:18:24.036Z,21.90
2023-01-20T09:19:24.033Z,22.90
2023-01-20T09:20:24.003Z,22.80
2023-01-20T09:21:24.013Z,24.10
2023-01-20T09:22:23.998Z,22.80
2023-01-20T09:23:23.965Z,23.40
2023-01-20T09:24:23.955Z,22.80
2023-01-20T09:25:23.945Z,22.40
2023-01-20T09:26:35.373Z,22.20
2023-01-20T09:27:24.942Z,21.50
2023-01-20T09:28:23.925Z,21.80
2023-01-20T09:29:23.917Z,21.80
2023-01-20T09:30:23.874Z,21.80
2023-01-20T09:31:23.959Z,21.40
2023-01-20T09:32:23.863Z,21.50
2023-01-20T09:33:23.845Z,21.80
2023-01-20T09:34:23.823Z,21.50
2023-01-20T09:35:23.940Z,22.40
2023-01-20T09:36:23.815Z,21.80
2023-01-20T09:37:23.809Z,21.40
2023-01-20T09:38:23.784Z,20.50
2023-01-20T09:39:23.789Z,21.30
2023-01-20T09:40:23.825Z,21.00
2023-01-20T09:41:23.782Z,21.30
2023-01-20T09:42:23.767Z,20.60
2023-01-20T09:43:23.712Z,22.00
2023-01-20T09:44:23.716Z,20.70
2023-01-20T09:45:23.685Z,21.60
2023-01-20T09:46:23.686Z,20.90
2023-01-20T09:47:23.662Z,21.70
2023-01-20T09:48:23.617Z,20.90
2023-01-20T09:49:23.632Z,21.10
2023-01-20T09:50:23.605Z,20.30
2023-01-20T09:51:23.615Z,20.40
2023-01-20T09:52:23.609Z,20.60
2023-01-20T09:53:23.571Z,20.50
2023-01-20T09:54:23.562Z,20.30
2023-01-20T09:55:23.545Z,19.80
2023-01-20T09:56:23.531Z,20.10
2023-01-20T09:57:23.547Z,19.70
2023-01-20T09:58:23.510Z,19.90
2023-01-20T09:59:23.497Z,20.00
2023-01-20T10:00:23.483Z,20.00
2023-01-20T10:01:23.474Z,20.30
2023-01-20T10:02:23.476Z,19.80
2023-01-20T10:03:23.469Z,20.40
2023-01-20T10:04:23.423Z,20.60
2023-01-20T10:05:23.472Z,19.90
2023-01-20T10:06:23.401Z,19.90
2023-01-20T10:07:23.407Z,19.90
2023-01-20T10:08:23.382Z,19.90
2023-01-20T10:09:23.371Z,20.00
2023-01-20T10:10:23.354Z,19.50
2023-01-20T10:11:23.421Z,20.00
2023-01-20T10:12:23.335Z,18.90
2023-01-20T10:13:23.336Z,20.30
2023-01-20T10:14:23.306Z,18.90
2023-01-20T10:15:23.296Z,20.60
2023-01-20T10:16:23.323Z,19.40
2023-01-20T10:17:23.262Z,19.20
2023-01-20T10:18:23.252Z,18.70
2023-01-20T10:19:23.248Z,19.60
2023-01-20T10:20:23.227Z,18.70
2023-01-20T10:21:23.220Z,18.40
2023-01-20T10:22:23.208Z,17.90
2023-01-20T10:23:23.199Z,18.00
2023-01-20T10:24:23.160Z,17.70
2023-01-20T10:25:23.161Z,17.90
2023-01-20T10:26:23.164Z,17.70
2023-01-20T10:27:23.128Z,18.50
2023-01-20T10:28:23.120Z,17.50
2023-01-20T10:29:23.106Z,18.20
2023-01-20T10:30:23.156Z,17.80
2023-01-20T10:31:23.112Z,16.40
2023-01-20T10:32:23.061Z,16.10
2023-01-20T10:33:23.071Z,16.10
2023-01-20T10:34:23.030Z,16.60
2023-01-20T10:35:23.021Z,16.10
2023-01-20T10:36:23.012Z,16.60
2023-01-20T10:37:22.990Z,15.60
2023-01-20T10:38:22.991Z,16.00
2023-01-20T10:39:22.977Z,15.70
2023-01-20T10:40:22.999Z,16.40
2023-01-20T10:41:22.944Z,15.40
2023-01-20T10:42:22.923Z,15.90
2023-01-20T10:43:22.933Z,15.70
2023-01-20T10:44:22.907Z,15.80
2023-01-20T10:45:22.892Z,15.00
2023-01-20T10:46:22.876Z,15.30
2023-01-20T10:47:22.860Z,15.60
2023-01-20T10:48:22.864Z,16.10
2023-01-20T10:49:22.834Z,15.70
2023-01-20T10:50:22.823Z,15.40
2023-01-20T10:51:22.841Z,16.20
2023-01-20T10:52:22.794Z,15.90
2023-01-20T10:53:22.814Z,15.60
2023-01-20T10:54:22.783Z,15.10
2023-01-20T10:55:22.762Z,15.30
2023-01-20T10:56:22.773Z,15.40
2023-01-20T10:57:22.742Z,14.80
2023-01-20T10:58:22.723Z,15.10
2023-01-20T10:59:22.711Z,16.40
2023-01-20T11:00:22.686Z,15.00
2023-01-20T11:01:22.746Z,15.00
2023-01-20T11:02:22.683Z,15.90
2023-01-20T11:03:22.707Z,15.10
2023-01-20T11:04:22.631Z,14.90
2023-01-20T11:05:22.629Z,14.40
2023-01-20T11:06:22.699Z,14.60
2023-01-20T11:07:22.609Z,14.80
2023-01-20T11:08:22.599Z,14.40
2023-01-20T11:09:22.575Z,13.90
2023-01-20T11:10:22.554Z,13.30
2023-01-20T11:11:22.559Z,14.30
2023-01-20T11:12:22.555Z,13.40
2023-01-20T11:13:22.533Z,13.60
2023-01-20T11:14:22.696Z,13.70
2023-01-20T11:15:22.483Z,13.20
2023-01-20T11:16:22.519Z,13.30
2023-01-20T11:17:22.459Z,12.90
2023-01-20T11:18:22.473Z,12.20
2023-01-20T11:19:22.432Z,12.90
2023-01-20T11:20:22.424Z,12.20
2023-01-20T11:21:22.413Z,12.00
2023-01-20T11:22:22.414Z,12.00
2023-01-20T11:23:22.394Z,11.80
2023-01-20T11:24:22.394Z,11.90
2023-01-20T11:25:22.362Z,10.80
2023-01-20T11:26:22.419Z,11.50
2023-01-20T11:27:22.392Z,10.70
2023-01-20T11:28:22.335Z,10.60
2023-01-20T11:29:22.347Z,11.20
2023-01-20T11:30:22.291Z,10.80
2023-01-20T11:31:22.432Z,10.20
2023-01-20T11:32:24.341Z,10.80
2023-01-20T11:33:22.276Z,10.10
2023-01-20T11:34:22.292Z,10.60
2023-01-20T11:35:22.227Z,10.40
2023-01-20T11:36:22.232Z,10.70
2023-01-20T11:37:22.197Z,10.40
2023-01-20T11:38:22.188Z,11.40
2023-01-20T11:39:22.187Z,10.10
2023-01-20T11:40:22.160Z,11.60
2023-01-20T11:41:22.220Z,11.30
2023-01-20T11:42:22.140Z,10.40
2023-01-20T11:43:22.126Z,10.90
2023-01-20T11:44:22.126Z,11.10
2023-01-20T11:45:22.108Z,11.30
2023-01-20T11:46:22.120Z,10.90
2023-01-20T11:47:22.074Z,11.20
2023-01-20T11:48:22.076Z,11.10
2023-01-20T11:49:22.108Z,11.10
2023-01-20T11:50:22.041Z,11.60
2023-01-20T11:51:22.139Z,11.40
2023-01-20T11:52:22.004Z,11.50
2023-01-20T11:53:22.034Z,10.80
2023-01-20T11:54:22.000Z,10.80
2023-01-20T11:55:21.969Z,11.00
2023-01-20T11:56:22.048Z,11.00
2023-01-20T11:57:21.932Z,11.10
2023-01-20T11:58:21.930Z,10.70
2023-01-20T11:59:21.926Z,10.70
2023-01-20T12:00:21.922Z,11.70
2023-01-20T12:01:21.912Z,10.70
2023-01-20T12:02:21.887Z,11.20
2023-01-20T12:03:21.875Z,11.00
2023-01-20T12:04:21.871Z,11.20
2023-01-20T12:05:21.854Z,10.90
2023-01-20T12:06:21.836Z,11.20
2023-01-20T12:07:21.797Z,10.70
2023-01-20T12:08:21.839Z,11.50
2023-01-20T12:09:21.796Z,11.50
2023-01-20T12:10:21.773Z,11.40
2023-01-20T12:11:21.783Z,11.20
2023-01-20T12:12:21.757Z,10.10
2023-01-20T12:13:21.723Z,10.70
2023-01-20T12:14:21.783Z,10.60
2023-01-20T12:15:21.701Z,11.30
2023-01-20T12:16:21.723Z,11.40
2023-01-20T12:17:21.672Z,10.90
2023-01-20T12:18:21.664Z,10.90
2023-01-20T12:19:21.684Z,11.10
2023-01-20T12:20:21.645Z,10.70
2023-01-20T12:21:21.655Z,11.00
2023-01-20T12:22:21.604Z,11.00
2023-01-20T12:23:21.592Z,10.90
2023-01-20T12:24:21.585Z,11.40
2023-01-20T12:25:21.557Z,11.20
2023-01-20T12:26:21.592Z,11.20
2023-01-20T12:27:21.550Z,11.50
2023-01-20T12:28:21.535Z,10.70
2023-01-20T12:29:21.544Z,11.60
2023-01-20T12:30:23.069Z,11.50
2023-01-20T12:31:21.635Z,11.30
2023-01-20T12:32:21.485Z,11.40
2023-01-20T12:33:21.455Z,11.90
2023-01-20T12:34:21.475Z,11.00
2023-01-20T12:35:21.435Z,12.00
2023-01-20T12:36:21.439Z,10.90
2023-01-20T12:37:21.410Z,10.90
2023-01-20T12:38:21.426Z,10.60
2023-01-20T12:39:21.410Z,11.00
2023-01-20T12:40:21.373Z,10.40
2023-01-20T12:41:21.378Z,10.50
2023-01-20T12:42:21.346Z,10.40
2023-01-20T12:43:21.335Z,10.50
2023-01-20T12:44:21.337Z,10.30
2023-01-20T12:45:21.318Z,10.50
2023-01-20T12:46:21.350Z,10.80
2023-01-20T12:47:21.280Z,10.80
2023-01-20T12:48:21.275Z,10.40
2023-01-20T12:49:21.282Z,10.40
2023-01-20T12:50:21.248Z,10.50
2023-01-20T12:51:21.324Z,10.90
2023-01-20T12:52:21.214Z,11.50
2023-01-20T12:53:21.217Z,11.10
2023-01-20T12:54:21.240Z,10.90